Time;durP1;ratioP1;P1;durP2;ratioP2;P2;SDS_P1;SDS_P2;PMS_P1;PMS_P2;Temp;Humidity;BMP_temperature;BMP_pressure;BME280_temperature;BME280_humidity;BME280_pressure;Samples;Min_cycle;Max_cycle;Signal;HPM_P1;HPM_P2
2023/08/27 00:02:21;;;;;;;9.52;8.15;;;;;;;;;;5027896;28;20210;-71
2023/08/27 00:04:46;;;;;;;8.77;7.80;;;;;;;;;;5019653;28;20186;-71
2023/08/27 00:07:12;;;;;;;10.40;7.68;;;;;;;;;;5027957;28;20210;-71
2023/08/27 00:09:37;;;;;;;9.60;7.93;;;;;;;;;;5029979;28;20193;-71
2023/08/27 00:12:03;;;;;;;12.35;9.15;;;;;;;;;;5029780;28;20236;-70
2023/08/27 00:14:30;;;;;;;9.52;8.50;;;;;;;;;;5020968;28;20656;-70
2023/08/27 00:16:55;;;;;;;10.35;8.75;;;;;;;;;;5028701;28;20288;-71
2023/08/27 00:19:21;;;;;;;12.00;8.90;;;;;;;;;;5024486;28;20269;-71
2023/08/27 00:21:48;;;;;;;13.25;8.57;;;;;;;;;;5027541;28;20579;-71
2023/08/27 00:24:13;;;;;;;10.07;8.45;;;;;;;;;;5028046;28;20232;-71
2023/08/27 00:26:39;;;;;;;11.63;8.88;;;;;;;;;;5030785;28;20189;-71
2023/08/27 00:29:04;;;;;;;11.35;8.63;;;;;;;;;;5028582;28;20186;-71
2023/08/27 00:31:30;;;;;;;10.05;8.57;;;;;;;;;;5026647;28;20175;-71
2023/08/27 00:33:55;;;;;;;12.57;8.85;;;;;;;;;;5028471;28;20194;-71
2023/08/27 00:36:20;;;;;;;9.27;8.18;;;;;;;;;;5029073;28;20189;-71
2023/08/27 00:38:46;;;;;;;10.90;8.85;;;;;;;;;;5024660;28;20259;-71
2023/08/27 00:41:11;;;;;;;11.15;8.55;;;;;;;;;;5027125;28;20201;-71
2023/08/27 00:43:37;;;;;;;12.20;8.18;;;;;;;;;;5025878;28;20742;-71
2023/08/27 00:46:03;;;;;;;9.23;7.90;;;;;;;;;;5027372;28;20178;-71
2023/08/27 00:48:28;;;;;;;8.48;7.53;;;;;;;;;;5028750;28;20371;-71
2023/08/27 00:50:54;;;;;;;14.15;8.15;;;;;;;;;;5027792;28;20316;-71
2023/08/27 00:53:19;;;;;;;8.27;7.45;;;;;;;;;;5025529;28;20190;-71
2023/08/27 00:55:45;;;;;;;9.60;8.40;;;;;;;;;;5003419;28;20187;-72
2023/08/27 00:58:10;;;;;;;10.00;8.52;;;;;;;;;;5029777;28;20197;-71
2023/08/27 01:00:36;;;;;;;9.90;8.82;;;;;;;;;;5015823;28;20179;-71
2023/08/27 01:03:01;;;;;;;11.88;8.52;;;;;;;;;;5026435;28;20689;-71
2023/08/27 01:05:27;;;;;;;9.75;7.75;;;;;;;;;;5031250;28;20198;-71
2023/08/27 01:07:59;;;;;;;10.18;8.02;;;;;;;;;;5030486;28;20194;-71
2023/08/27 01:10:30;;;;;;;10.50;8.23;;;;;;;;;;5021860;28;20299;-71
2023/08/27 01:13:10;;;;;;;9.73;8.40;;;;;;;;;;5007676;28;20257;-71
2023/08/27 01:15:36;;;;;;;9.55;8.30;;;;;;;;;;5032783;28;20193;-71
2023/08/27 01:18:03;;;;;;;8.80;7.75;;;;;;;;;;5031403;28;20633;-71
2023/08/27 01:20:30;;;;;;;9.00;8.10;;;;;;;;;;5025890;28;20194;-71
2023/08/27 01:22:55;;;;;;;12.65;8.07;;;;;;;;;;5031783;28;20285;-71
2023/08/27 01:25:24;;;;;;;10.38;7.90;;;;;;;;;;5032833;28;20274;-71
2023/08/27 01:27:58;;;;;;;10.85;7.60;;;;;;;;;;5030525;28;20257;-71
2023/08/27 01:30:30;;;;;;;8.68;7.35;;;;;;;;;;5032344;28;20687;-71
2023/08/27 01:33:10;;;;;;;10.77;7.05;;;;;;;;;;5018328;28;20194;-71
2023/08/27 01:35:36;;;;;;;10.73;7.47;;;;;;;;;;5023412;28;20186;-72
2023/08/27 01:38:02;;;;;;;11.75;7.55;;;;;;;;;;5032053;28;20178;-71
2023/08/27 01:40:27;;;;;;;8.65;7.05;;;;;;;;;;5003611;28;20768;-72
2023/08/27 01:42:53;;;;;;;8.50;7.63;;;;;;;;;;5028769;28;20725;-72
2023/08/27 01:45:19;;;;;;;11.13;7.30;;;;;;;;;;5029669;28;20256;-71
2023/08/27 01:47:44;;;;;;;10.00;7.32;;;;;;;;;;5033427;28;20178;-71
2023/08/27 01:50:09;;;;;;;10.65;8.05;;;;;;;;;;5018983;28;20182;-72
2023/08/27 01:52:35;;;;;;;8.25;7.43;;;;;;;;;;5032146;28;20657;-72
2023/08/27 01:55:03;;;;;;;8.85;7.55;;;;;;;;;;5026478;28;20193;-72
2023/08/27 01:57:28;;;;;;;7.43;6.72;;;;;;;;;;5032575;28;20567;-71
2023/08/27 01:59:54;;;;;;;8.07;7.07;;;;;;;;;;5027500;28;20186;-71
2023/08/27 02:02:19;;;;;;;12.25;6.70;;;;;;;;;;5026019;28;20225;-72
2023/08/27 02:04:45;;;;;;;8.45;6.32;;;;;;;;;;5016845;28;20214;-71
2023/08/27 02:07:10;;;;;;;8.27;7.07;;;;;;;;;;5032114;28;20193;-71
2023/08/27 02:09:36;;;;;;;9.10;7.68;;;;;;;;;;5029223;28;20197;-71
2023/08/27 02:12:04;;;;;;;8.38;7.43;;;;;;;;;;5029624;28;20561;-71
2023/08/27 02:14:29;;;;;;;10.13;8.23;;;;;;;;;;5021546;28;20194;-72
2023/08/27 02:16:55;;;;;;;11.07;7.65;;;;;;;;;;5030694;28;20259;-71
2023/08/27 02:19:21;;;;;;;10.50;8.45;;;;;;;;;;5021482;28;20526;-71
2023/08/27 02:21:46;;;;;;;9.88;8.88;;;;;;;;;;5028620;28;20214;-71
2023/08/27 02:24:11;;;;;;;12.20;8.73;;;;;;;;;;5026193;28;20608;-71
2023/08/27 02:26:37;;;;;;;10.27;8.85;;;;;;;;;;5029694;28;20744;-71
2023/08/27 02:29:02;;;;;;;10.98;8.65;;;;;;;;;;5031346;28;20197;-71
2023/08/27 02:31:28;;;;;;;10.07;8.60;;;;;;;;;;5028380;28;20651;-72
2023/08/27 02:33:53;;;;;;;11.60;8.52;;;;;;;;;;5027724;28;20341;-71
2023/08/27 02:36:18;;;;;;;17.30;10.02;;;;;;;;;;5024127;28;20699;-72
2023/08/27 02:38:44;;;;;;;9.50;8.52;;;;;;;;;;5028056;28;20225;-71
2023/08/27 02:41:09;;;;;;;8.82;8.02;;;;;;;;;;5021394;28;20218;-72
2023/08/27 02:43:34;;;;;;;10.35;8.57;;;;;;;;;;5018178;28;20362;-71
2023/08/27 02:46:00;;;;;;;14.13;9.40;;;;;;;;;;5030413;28;20232;-70
2023/08/27 02:48:25;;;;;;;9.82;8.82;;;;;;;;;;5032048;28;20240;-70
2023/08/27 02:50:51;;;;;;;10.48;8.32;;;;;;;;;;5028403;28;20186;-70
2023/08/27 02:53:16;;;;;;;13.25;8.52;;;;;;;;;;5031319;28;20726;-70
2023/08/27 02:55:42;;;;;;;8.85;8.05;;;;;;;;;;5029467;28;20248;-70
2023/08/27 02:58:07;;;;;;;8.77;7.88;;;;;;;;;;5031068;28;20273;-70
2023/08/27 03:00:32;;;;;;;10.65;8.48;;;;;;;;;;5016299;28;20187;-70
2023/08/27 03:02:58;;;;;;;9.65;7.95;;;;;;;;;;5029041;28;20612;-71
2023/08/27 03:05:23;;;;;;;13.48;9.10;;;;;;;;;;5028830;28;20186;-71
2023/08/27 03:07:48;;;;;;;13.48;9.27;;;;;;;;;;5015545;28;20240;-71
2023/08/27 03:10:14;;;;;;;11.82;9.50;;;;;;;;;;5028017;28;20681;-71
2023/08/27 03:12:40;;;;;;;11.35;9.73;;;;;;;;;;5029472;28;20269;-70
2023/08/27 03:15:06;;;;;;;11.93;9.40;;;;;;;;;;5026751;28;20201;-70
2023/08/27 03:17:31;;;;;;;13.10;9.40;;;;;;;;;;5012374;28;20808;-70
2023/08/27 03:19:57;;;;;;;13.18;9.68;;;;;;;;;;5025808;28;20183;-70
2023/08/27 03:22:22;;;;;;;12.43;9.50;;;;;;;;;;5023011;28;20210;-70
2023/08/27 03:24:47;;;;;;;11.18;9.43;;;;;;;;;;5021282;28;20202;-71
2023/08/27 03:27:13;;;;;;;10.65;9.50;;;;;;;;;;5029514;28;20194;-70
2023/08/27 03:29:39;;;;;;;12.77;8.93;;;;;;;;;;5023670;28;20194;-70
2023/08/27 03:32:05;;;;;;;10.68;9.07;;;;;;;;;;5030711;28;20186;-71
2023/08/27 03:34:31;;;;;;;11.98;9.32;;;;;;;;;;5030619;28;20276;-71
2023/08/27 03:36:57;;;;;;;11.32;9.05;;;;;;;;;;5030044;28;20266;-70
2023/08/27 03:39:22;;;;;;;20.40;9.65;;;;;;;;;;5030639;28;20192;-70
2023/08/27 03:41:48;;;;;;;13.73;9.82;;;;;;;;;;5028065;28;20284;-71
2023/08/27 03:44:13;;;;;;;11.25;9.25;;;;;;;;;;5030242;28;20757;-70
2023/08/27 03:46:42;;;;;;;14.35;10.13;;;;;;;;;;5026454;28;20186;-70
2023/08/27 03:49:07;;;;;;;11.98;9.30;;;;;;;;;;5026858;28;20182;-70
2023/08/27 03:51:33;;;;;;;12.93;10.38;;;;;;;;;;5020038;28;20178;-70
2023/08/27 03:53:58;;;;;;;11.82;9.70;;;;;;;;;;5028287;28;20236;-70
2023/08/27 03:56:24;;;;;;;12.70;10.18;;;;;;;;;;5029622;28;20657;-70
2023/08/27 03:58:50;;;;;;;12.50;9.82;;;;;;;;;;5012207;28;20182;-70
2023/08/27 04:01:15;;;;;;;14.68;10.18;;;;;;;;;;5026709;28;20206;-70
2023/08/27 04:03:40;;;;;;;12.35;9.60;;;;;;;;;;5029796;28;20599;-70
2023/08/27 04:06:07;;;;;;;12.05;9.95;;;;;;;;;;5031324;28;20558;-70
2023/08/27 04:08:32;;;;;;;11.40;9.68;;;;;;;;;;5030734;28;20194;-70
2023/08/27 04:10:57;;;;;;;16.05;10.77;;;;;;;;;;5029104;28;20200;-71
2023/08/27 04:13:23;;;;;;;11.90;9.85;;;;;;;;;;5012502;28;20244;-71
2023/08/27 04:16:21;;;;;;;16.35;9.55;;;;;;;;;;5029672;28;20567;-70
2023/08/27 04:18:46;;;;;;;13.80;10.73;;;;;;;;;;5016604;28;20351;-71
2023/08/27 04:21:12;;;;;;;12.07;10.32;;;;;;;;;;5029883;28;20819;-70
2023/08/27 04:23:37;;;;;;;12.45;10.13;;;;;;;;;;5043418;28;20190;-71
2023/08/27 04:26:03;;;;;;;14.75;10.57;;;;;;;;;;5028570;28;20186;-71
2023/08/27 04:28:31;;;;;;;12.63;10.98;;;;;;;;;;5024217;28;20606;-70
2023/08/27 04:30:57;;;;;;;13.70;10.23;;;;;;;;;;5025857;28;20247;-71
2023/08/27 04:33:22;;;;;;;12.95;11.18;;;;;;;;;;5029011;28;20642;-71
2023/08/27 04:35:49;;;;;;;12.48;10.63;;;;;;;;;;5029597;28;20201;-71
2023/08/27 04:38:15;;;;;;;14.05;12.40;;;;;;;;;;5029420;28;20186;-70
2023/08/27 04:40:40;;;;;;;20.38;13.82;;;;;;;;;;5030070;28;20186;-70
2023/08/27 04:43:06;;;;;;;17.98;13.95;;;;;;;;;;5029664;28;20755;-70
2023/08/27 04:45:31;;;;;;;15.65;13.52;;;;;;;;;;5024024;28;20236;-70
2023/08/27 04:47:57;;;;;;;13.70;11.57;;;;;;;;;;5027626;28;20240;-70
2023/08/27 04:50:22;;;;;;;19.15;13.85;;;;;;;;;;5024476;28;20198;-70
2023/08/27 04:52:47;;;;;;;15.40;12.18;;;;;;;;;;5033665;28;20240;-69
2023/08/27 04:55:13;;;;;;;16.83;13.45;;;;;;;;;;5026936;28;20579;-69
2023/08/27 04:57:38;;;;;;;13.30;10.88;;;;;;;;;;5028165;28;20186;-70
2023/08/27 05:00:08;;;;;;;13.90;11.73;;;;;;;;;;5026287;28;20506;-70
2023/08/27 05:02:34;;;;;;;17.08;13.90;;;;;;;;;;5028739;28;20694;-69
2023/08/27 05:05:00;;;;;;;15.45;11.93;;;;;;;;;;5028851;28;20257;-69
2023/08/27 05:07:25;;;;;;;14.98;13.20;;;;;;;;;;5030473;28;20179;-70
2023/08/27 05:09:51;;;;;;;17.80;13.65;;;;;;;;;;5029644;28;20316;-70
2023/08/27 05:12:16;;;;;;;14.88;11.93;;;;;;;;;;5024488;28;20216;-69
2023/08/27 05:14:41;;;;;;;13.20;11.90;;;;;;;;;;5034738;28;20201;-70
2023/08/27 05:17:07;;;;;;;15.20;11.48;;;;;;;;;;5020414;28;20563;-70
2023/08/27 05:19:32;;;;;;;13.18;11.05;;;;;;;;;;5025939;28;20190;-72
2023/08/27 05:21:59;;;;;;;11.68;10.48;;;;;;;;;;5023707;28;20261;-77
2023/08/27 05:24:25;;;;;;;11.25;9.55;;;;;;;;;;5033419;28;20276;-76
2023/08/27 05:26:50;;;;;;;13.30;9.30;;;;;;;;;;5035698;28;20609;-77
2023/08/27 05:29:16;;;;;;;11.18;9.73;;;;;;;;;;5021798;28;20677;-78
2023/08/27 05:31:41;;;;;;;11.15;9.35;;;;;;;;;;5028661;28;20202;-76
2023/08/27 05:34:06;;;;;;;11.23;9.48;;;;;;;;;;5023857;28;20196;-75
2023/08/27 05:36:32;;;;;;;12.43;8.93;;;;;;;;;;5031596;28;20248;-73
2023/08/27 05:38:57;;;;;;;11.00;9.18;;;;;;;;;;5033793;28;20190;-69
2023/08/27 05:41:22;;;;;;;15.50;10.32;;;;;;;;;;5031846;28;20266;-71
2023/08/27 05:43:49;;;;;;;17.42;10.60;;;;;;;;;;5033210;28;20287;-76
2023/08/27 05:46:14;;;;;;;17.70;9.60;;;;;;;;;;5034973;28;20588;-78
2023/08/27 05:48:40;;;;;;;11.20;8.95;;;;;;;;;;5032165;28;20231;-80
2023/08/27 05:51:05;;;;;;;13.30;9.10;;;;;;;;;;5037218;28;20231;-78
2023/08/27 05:53:31;;;;;;;11.13;8.55;;;;;;;;;;5035816;28;20221;-76
2023/08/27 05:55:56;;;;;;;10.65;8.68;;;;;;;;;;5025010;28;20194;-75
2023/08/27 05:58:22;;;;;;;11.75;7.75;;;;;;;;;;5033226;28;20178;-76
2023/08/27 06:00:54;;;;;;;8.77;7.47;;;;;;;;;;5027352;28;20282;-75
2023/08/27 06:03:20;;;;;;;11.95;6.82;;;;;;;;;;5033391;28;20238;-75
2023/08/27 06:05:48;;;;;;;12.52;7.43;;;;;;;;;;5032839;28;20206;-81
2023/08/27 06:08:14;;;;;;;14.02;7.68;;;;;;;;;;5007418;28;20178;-80
2023/08/27 06:10:40;;;;;;;9.70;6.50;;;;;;;;;;5019379;28;20182;-80
2023/08/27 06:13:06;;;;;;;11.30;7.95;;;;;;;;;;5012108;28;20542;-77
2023/08/27 06:15:34;;;;;;;11.48;7.40;;;;;;;;;;5030621;28;20186;-73
2023/08/27 06:18:02;;;;;;;11.32;8.13;;;;;;;;;;5032224;28;20221;-76
2023/08/27 06:20:28;;;;;;;9.55;7.82;;;;;;;;;;5030849;28;20199;-76
2023/08/27 06:22:54;;;;;;;12.20;7.88;;;;;;;;;;5032613;28;20194;-74
2023/08/27 06:25:21;;;;;;;13.90;8.30;;;;;;;;;;5033254;28;20205;-77
2023/08/27 06:27:46;;;;;;;12.52;8.48;;;;;;;;;;5032969;28;20523;-79
2023/08/27 06:30:12;;;;;;;14.77;7.70;;;;;;;;;;5032132;28;20196;-79
2023/08/27 06:32:37;;;;;;;11.65;7.32;;;;;;;;;;5026213;28;20186;-76
2023/08/27 06:35:04;;;;;;;8.77;7.00;;;;;;;;;;5030014;28;20197;-79
2023/08/27 06:37:31;;;;;;;11.77;6.97;;;;;;;;;;5029292;28;20701;-78
2023/08/27 06:39:57;;;;;;;12.10;7.20;;;;;;;;;;5032723;28;20182;-79
2023/08/27 06:42:22;;;;;;;9.50;7.30;;;;;;;;;;5033002;28;20294;-80
2023/08/27 06:44:49;;;;;;;12.52;7.32;;;;;;;;;;5008410;28;20715;-80
2023/08/27 06:47:14;;;;;;;8.23;6.75;;;;;;;;;;5025155;28;20269;-78
2023/08/27 06:49:40;;;;;;;9.35;5.88;;;;;;;;;;5027999;28;20209;-79
2023/08/27 06:52:05;;;;;;;9.48;6.45;;;;;;;;;;5032641;28;20213;-81
2023/08/27 06:54:34;;;;;;;9.18;6.85;;;;;;;;;;5014996;28;20201;-80
2023/08/27 06:56:59;;;;;;;9.68;6.55;;;;;;;;;;5018958;28;20202;-76
2023/08/27 06:59:25;;;;;;;8.02;6.47;;;;;;;;;;5028444;28;20394;-76
2023/08/27 07:01:50;;;;;;;7.72;6.10;;;;;;;;;;5032887;28;20210;-75
2023/08/27 07:04:16;;;;;;;11.60;6.35;;;;;;;;;;5005759;28;20588;-75
2023/08/27 07:06:41;;;;;;;9.63;5.18;;;;;;;;;;5026397;28;20198;-74
2023/08/27 07:09:07;;;;;;;7.05;5.45;;;;;;;;;;5030274;28;20190;-75
2023/08/27 07:11:35;;;;;;;8.23;5.65;;;;;;;;;;5025571;28;20296;-74
2023/08/27 07:14:00;;;;;;;9.73;6.50;;;;;;;;;;5029047;28;20336;-72
2023/08/27 07:16:26;;;;;;;6.07;4.97;;;;;;;;;;5023100;28;20241;-72
2023/08/27 07:18:52;;;;;;;8.27;4.47;;;;;;;;;;5028356;28;20679;-70
2023/08/27 07:21:18;;;;;;;6.47;4.18;;;;;;;;;;5027130;28;20205;-70
2023/08/27 07:23:43;;;;;;;7.20;4.57;;;;;;;;;;5025989;28;20186;-71
2023/08/27 07:26:09;;;;;;;5.75;3.97;;;;;;;;;;5025432;28;20189;-70
2023/08/27 07:28:34;;;;;;;5.60;3.95;;;;;;;;;;5028733;28;20193;-71
2023/08/27 07:31:00;;;;;;;5.70;4.07;;;;;;;;;;5024989;28;20230;-70
2023/08/27 07:33:27;;;;;;;4.63;3.42;;;;;;;;;;5030178;28;20273;-70
2023/08/27 07:35:52;;;;;;;3.42;2.88;;;;;;;;;;5026497;28;20546;-70
2023/08/27 07:38:18;;;;;;;3.10;2.80;;;;;;;;;;5027534;28;20192;-69
2023/08/27 07:40:43;;;;;;;3.47;2.42;;;;;;;;;;5030626;28;20201;-69
2023/08/27 07:43:08;;;;;;;2.92;2.63;;;;;;;;;;5023791;28;20363;-70
2023/08/27 07:45:34;;;;;;;2.55;2.30;;;;;;;;;;5029966;28;20234;-69
2023/08/27 07:47:59;;;;;;;4.07;2.90;;;;;;;;;;5020494;28;20236;-70
2023/08/27 07:50:26;;;;;;;2.75;2.30;;;;;;;;;;5030958;28;20486;-69
2023/08/27 07:52:51;;;;;;;5.40;2.50;;;;;;;;;;5028336;28;20206;-69
2023/08/27 07:55:17;;;;;;;2.47;2.28;;;;;;;;;;5027313;28;20225;-69
2023/08/27 07:57:43;;;;;;;3.55;2.55;;;;;;;;;;5028807;28;20198;-69
2023/08/27 08:00:09;;;;;;;3.75;2.65;;;;;;;;;;5030169;28;20550;-69
2023/08/27 08:02:34;;;;;;;3.38;2.20;;;;;;;;;;5026253;28;20217;-69
2023/08/27 08:05:01;;;;;;;3.42;2.08;;;;;;;;;;5029162;28;20665;-70
2023/08/27 08:07:27;;;;;;;2.40;2.20;;;;;;;;;;5023508;28;20323;-70
2023/08/27 08:09:52;;;;;;;2.38;1.90;;;;;;;;;;5027385;28;20273;-69
2023/08/27 08:12:18;;;;;;;4.65;2.55;;;;;;;;;;5029871;28;20198;-69
2023/08/27 08:14:43;;;;;;;2.60;2.00;;;;;;;;;;5028764;28;20201;-71
2023/08/27 08:17:09;;;;;;;2.67;1.90;;;;;;;;;;5023565;28;20301;-69
2023/08/27 08:19:35;;;;;;;3.08;2.28;;;;;;;;;;5028579;28;20582;-69
2023/08/27 08:22:00;;;;;;;4.32;2.03;;;;;;;;;;5028309;28;20213;-69
2023/08/27 08:24:26;;;;;;;2.90;1.85;;;;;;;;;;5027949;28;20547;-70
2023/08/27 08:26:52;;;;;;;1.70;1.55;;;;;;;;;;5030230;28;20556;-69
2023/08/27 08:29:22;;;;;;;3.40;1.75;;;;;;;;;;5029515;28;20215;-70
2023/08/27 08:31:47;;;;;;;2.85;1.70;;;;;;;;;;5024300;28;20196;-69
2023/08/27 08:34:14;;;;;;;2.08;1.40;;;;;;;;;;5028372;28;20198;-69
2023/08/27 08:36:39;;;;;;;3.42;1.58;;;;;;;;;;5029224;28;20201;-69
2023/08/27 08:39:04;;;;;;;4.10;2.28;;;;;;;;;;5025293;28;20186;-71
2023/08/27 08:41:34;;;;;;;4.47;2.40;;;;;;;;;;5003255;28;20245;-70
2023/08/27 08:44:30;;;;;;;3.63;2.10;;;;;;;;;;5030089;28;20236;-70
2023/08/27 08:46:56;;;;;;;5.00;2.95;;;;;;;;;;5025565;28;20221;-70
2023/08/27 08:49:25;;;;;;;5.10;2.40;;;;;;;;;;5028242;28;20210;-69
2023/08/27 08:51:54;;;;;;;5.13;2.55;;;;;;;;;;5019807;28;20195;-69
2023/08/27 08:54:25;;;;;;;5.95;2.58;;;;;;;;;;5028574;28;20244;-69
2023/08/27 08:56:54;;;;;;;3.65;2.60;;;;;;;;;;5023999;28;20194;-70
2023/08/27 08:59:22;;;;;;;4.75;3.10;;;;;;;;;;5031689;28;20252;-69
2023/08/27 09:01:48;;;;;;;5.22;3.40;;;;;;;;;;5020358;28;20203;-69
2023/08/27 09:04:15;;;;;;;7.90;3.35;;;;;;;;;;5025677;28;20285;-69
2023/08/27 09:06:41;;;;;;;7.20;3.35;;;;;;;;;;5028406;28;20182;-69
2023/08/27 09:09:08;;;;;;;5.75;4.07;;;;;;;;;;5028732;28;20205;-70
2023/08/27 09:11:36;;;;;;;6.40;3.72;;;;;;;;;;5028713;28;20281;-70
2023/08/27 09:14:03;;;;;;;9.82;4.30;;;;;;;;;;5024767;28;20559;-70
2023/08/27 09:16:29;;;;;;;7.15;3.80;;;;;;;;;;5025624;28;20561;-70
2023/08/27 09:18:56;;;;;;;6.18;3.47;;;;;;;;;;5027032;28;20677;-72
2023/08/27 09:21:21;;;;;;;4.88;2.78;;;;;;;;;;5023423;28;20266;-70
2023/08/27 09:23:47;;;;;;;5.82;3.25;;;;;;;;;;5026869;28;20268;-70
2023/08/27 09:26:14;;;;;;;4.25;3.13;;;;;;;;;;5027349;28;20197;-71
2023/08/27 09:28:40;;;;;;;4.72;3.15;;;;;;;;;;5029130;28;20183;-70
2023/08/27 09:31:09;;;;;;;7.43;3.28;;;;;;;;;;5003876;28;20190;-70
2023/08/27 09:33:40;;;;;;;5.97;3.80;;;;;;;;;;5017602;28;20682;-70
2023/08/27 09:36:07;;;;;;;8.75;3.63;;;;;;;;;;5010251;28;20210;-70
2023/08/27 09:38:34;;;;;;;10.05;3.80;;;;;;;;;;5024710;28;20278;-71
2023/08/27 09:41:30;;;;;;;7.70;3.50;;;;;;;;;;5013597;28;20178;-70
2023/08/27 09:43:56;;;;;;;4.07;3.40;;;;;;;;;;5022506;28;20225;-72
2023/08/27 09:46:21;;;;;;;7.55;3.58;;;;;;;;;;5031388;28;20186;-71
2023/08/27 09:49:07;;;;;;;5.65;3.22;;;;;;;;;;5010104;28;20614;-71
2023/08/27 09:51:34;;;;;;;4.60;2.75;;;;;;;;;;5021670;28;20182;-71
2023/08/27 09:54:00;;;;;;;6.03;3.03;;;;;;;;;;5011157;28;20717;-71
2023/08/27 09:56:26;;;;;;;9.27;2.90;;;;;;;;;;5038513;28;20226;-71
2023/08/27 09:58:53;;;;;;;3.70;2.45;;;;;;;;;;5015409;28;20190;-71
2023/08/27 10:01:25;;;;;;;4.05;2.53;;;;;;;;;;5033853;28;20194;-71
2023/08/27 10:03:51;;;;;;;4.63;2.38;;;;;;;;;;5025939;28;20239;-71
2023/08/27 10:06:16;;;;;;;3.58;2.17;;;;;;;;;;5033481;28;20570;-71
2023/08/27 10:08:50;;;;;;;4.60;2.53;;;;;;;;;;5025160;28;20256;-71
2023/08/27 10:11:16;;;;;;;6.43;2.90;;;;;;;;;;5033973;28;20610;-71
2023/08/27 10:13:45;;;;;;;6.45;2.97;;;;;;;;;;5025226;28;20198;-74
2023/08/27 10:16:12;;;;;;;7.15;2.83;;;;;;;;;;5031340;28;20217;-71
2023/08/27 10:18:38;;;;;;;6.03;2.58;;;;;;;;;;5028145;28;20289;-72
2023/08/27 10:21:06;;;;;;;5.95;2.85;;;;;;;;;;5032121;28;20255;-71
2023/08/27 10:23:33;;;;;;;6.05;1.95;;;;;;;;;;5021417;28;20206;-71
2023/08/27 10:26:00;;;;;;;4.07;2.05;;;;;;;;;;5034071;28;20193;-72
2023/08/27 10:28:26;;;;;;;5.40;2.35;;;;;;;;;;5022692;28;20542;-71
2023/08/27 10:30:53;;;;;;;6.93;1.98;;;;;;;;;;5030719;28;20299;-72
2023/08/27 10:33:19;;;;;;;3.40;1.52;;;;;;;;;;5030662;28;20241;-72
2023/08/27 10:35:47;;;;;;;6.75;1.77;;;;;;;;;;5035530;28;20522;-72
2023/08/27 10:38:15;;;;;;;3.47;1.30;;;;;;;;;;5022209;28;20229;-71
2023/08/27 10:40:44;;;;;;;5.28;1.90;;;;;;;;;;5035636;28;20186;-78
2023/08/27 10:43:17;;;;;;;5.20;1.80;;;;;;;;;;5007528;28;20310;-70
2023/08/27 10:45:43;;;;;;;3.35;1.23;;;;;;;;;;5034828;28;20198;-70
2023/08/27 10:48:22;;;;;;;4.22;1.50;;;;;;;;;;5020359;28;20213;-71
2023/08/27 10:50:55;;;;;;;2.60;1.40;;;;;;;;;;5030743;28;20227;-71
2023/08/27 10:53:21;;;;;;;3.53;1.75;;;;;;;;;;5026858;28;20186;-71
2023/08/27 10:55:51;;;;;;;5.68;1.83;;;;;;;;;;5032369;28;20704;-71
2023/08/27 10:58:25;;;;;;;4.25;1.67;;;;;;;;;;5033013;28;20189;-72
2023/08/27 11:01:04;;;;;;;6.10;1.80;;;;;;;;;;5034884;28;20197;-72
2023/08/27 11:03:58;;;;;;;3.22;1.55;;;;;;;;;;5029915;28;20198;-73
2023/08/27 11:06:46;;;;;;;2.42;1.20;;;;;;;;;;5026364;28;20191;-70
2023/08/27 11:09:20;;;;;;;3.60;1.73;;;;;;;;;;5029701;28;20197;-70
2023/08/27 11:11:49;;;;;;;3.22;1.40;;;;;;;;;;5022070;28;20403;-71
2023/08/27 11:14:16;;;;;;;4.10;1.10;;;;;;;;;;5027416;28;20221;-75
2023/08/27 11:16:48;;;;;;;1.42;1.30;;;;;;;;;;5007057;28;20178;-72
2023/08/27 11:19:23;;;;;;;2.97;1.20;;;;;;;;;;5022361;28;20768;-72
2023/08/27 11:21:48;;;;;;;2.97;1.10;;;;;;;;;;5017467;28;20205;-74
2023/08/27 11:24:15;;;;;;;2.25;1.15;;;;;;;;;;5008433;28;20194;-77
2023/08/27 11:26:41;;;;;;;6.53;1.20;;;;;;;;;;5026736;28;20183;-75
2023/08/27 11:29:10;;;;;;;11.05;4.43;;;;;;;;;;5029761;28;20197;-74
2023/08/27 11:31:44;;;;;;;6.07;1.77;;;;;;;;;;5030190;28;20205;-74
2023/08/27 11:34:16;;;;;;;5.78;1.58;;;;;;;;;;5023214;28;20201;-72
2023/08/27 11:36:45;;;;;;;6.80;2.00;;;;;;;;;;5013395;28;20205;-73
2023/08/27 11:39:12;;;;;;;5.20;2.03;;;;;;;;;;5029869;28;20266;-72
2023/08/27 11:41:39;;;;;;;8.52;1.75;;;;;;;;;;5031022;28;20215;-72
2023/08/27 11:44:10;;;;;;;5.20;1.30;;;;;;;;;;5029044;28;20230;-74
2023/08/27 11:46:40;;;;;;;4.95;1.20;;;;;;;;;;4791049;28;10001207;-73
2023/08/27 11:49:07;;;;;;;3.80;1.08;;;;;;;;;;5031787;28;20391;-77
2023/08/27 11:51:34;;;;;;;3.08;1.15;;;;;;;;;;5021563;28;20191;-76
2023/08/27 11:54:04;;;;;;;1.92;0.85;;;;;;;;;;5027275;28;20217;-73
2023/08/27 11:56:30;;;;;;;2.13;0.95;;;;;;;;;;5029916;28;20240;-77
2023/08/27 11:58:55;;;;;;;3.47;1.20;;;;;;;;;;5030284;28;20653;-72
2023/08/27 12:01:21;;;;;;;2.17;0.90;;;;;;;;;;5026352;28;20277;-75
2023/08/27 12:03:52;;;;;;;3.03;0.90;;;;;;;;;;5019981;28;20201;-72
2023/08/27 12:06:28;;;;;;;1.17;0.90;;;;;;;;;;5030912;28;20190;-73
2023/08/27 12:08:55;;;;;;;2.38;1.60;;;;;;;;;;5022999;28;20248;-70
2023/08/27 12:11:27;;;;;;;1.67;1.35;;;;;;;;;;5025281;28;20187;-70
2023/08/27 12:13:57;;;;;;;1.38;1.27;;;;;;;;;;5027314;28;20209;-71
2023/08/27 12:16:34;;;;;;;1.88;1.20;;;;;;;;;;5028277;28;20558;-73
2023/08/27 12:19:05;;;;;;;2.28;1.08;;;;;;;;;;5028422;28;20276;-72
2023/08/27 12:21:36;;;;;;;1.13;0.88;;;;;;;;;;5025997;28;21221;-72
2023/08/27 12:24:01;;;;;;;1.15;0.90;;;;;;;;;;5026495;28;20747;-73
2023/08/27 12:26:27;;;;;;;1.08;0.68;;;;;;;;;;5027126;28;20190;-70
2023/08/27 12:28:53;;;;;;;1.98;0.70;;;;;;;;;;5026315;28;20194;-70
2023/08/27 12:31:25;;;;;;;1.60;0.80;;;;;;;;;;5028761;28;20331;-71
2023/08/27 12:33:56;;;;;;;1.73;1.00;;;;;;;;;;5022591;28;20182;-71
2023/08/27 12:36:22;;;;;;;1.65;0.85;;;;;;;;;;5026340;28;20201;-73
2023/08/27 12:38:48;;;;;;;1.95;1.08;;;;;;;;;;5021173;28;20282;-70
2023/08/27 12:41:13;;;;;;;3.08;1.40;;;;;;;;;;5021536;28;20257;-75
2023/08/27 12:43:39;;;;;;;2.97;0.90;;;;;;;;;;5028020;28;20221;-74
2023/08/27 12:46:06;;;;;;;3.05;1.30;;;;;;;;;;5025317;28;20557;-70
2023/08/27 12:48:32;;;;;;;2.70;1.35;;;;;;;;;;5026478;28;20198;-71
2023/08/27 12:50:57;;;;;;;1.90;1.15;;;;;;;;;;5014847;28;20204;-74
2023/08/27 12:53:23;;;;;;;5.10;1.27;;;;;;;;;;5021786;28;20229;-73
2023/08/27 12:55:48;;;;;;;2.08;1.08;;;;;;;;;;5024973;28;20194;-70
2023/08/27 12:58:14;;;;;;;2.90;1.40;;;;;;;;;;5026675;28;20259;-76
2023/08/27 13:00:40;;;;;;;1.73;1.20;;;;;;;;;;5028758;28;20202;-75
2023/08/27 13:03:05;;;;;;;2.05;1.48;;;;;;;;;;5035769;28;20209;-72
2023/08/27 13:05:31;;;;;;;2.83;1.40;;;;;;;;;;5031574;28;20249;-75
2023/08/27 13:08:00;;;;;;;1.40;1.10;;;;;;;;;;5014861;28;20186;-77
2023/08/27 13:10:26;;;;;;;2.63;1.20;;;;;;;;;;5024977;28;20186;-74
2023/08/27 13:12:52;;;;;;;3.65;1.42;;;;;;;;;;5028417;28;20182;-72
2023/08/27 13:15:17;;;;;;;1.75;1.40;;;;;;;;;;5015035;28;20186;-71
2023/08/27 13:17:43;;;;;;;2.78;1.27;;;;;;;;;;5028930;28;20213;-72
2023/08/27 13:20:09;;;;;;;2.05;1.23;;;;;;;;;;5021522;28;20198;-72
2023/08/27 13:22:34;;;;;;;2.90;1.23;;;;;;;;;;5032700;28;20210;-72
2023/08/27 13:25:00;;;;;;;1.63;1.17;;;;;;;;;;5008290;28;20200;-70
2023/08/27 13:27:25;;;;;;;2.78;1.17;;;;;;;;;;5025753;28;20529;-68
2023/08/27 13:29:50;;;;;;;3.47;1.20;;;;;;;;;;5024736;28;20924;-72
2023/08/27 13:32:16;;;;;;;13.27;1.52;;;;;;;;;;5029570;28;20197;-72
2023/08/27 13:34:41;;;;;;;3.20;1.02;;;;;;;;;;5031906;28;20281;-71
2023/08/27 13:37:07;;;;;;;2.15;1.08;;;;;;;;;;5026873;28;20187;-72
2023/08/27 13:39:33;;;;;;;1.88;0.60;;;;;;;;;;5025892;28;20317;-72
2023/08/27 13:42:02;;;;;;;0.80;0.80;;;;;;;;;;5027985;28;20253;-71
2023/08/27 13:44:27;;;;;;;1.98;0.93;;;;;;;;;;5025143;28;20237;-71
2023/08/27 13:46:53;;;;;;;1.60;0.80;;;;;;;;;;5021926;28;20186;-71
2023/08/27 13:49:18;;;;;;;2.38;0.77;;;;;;;;;;5028211;28;20751;-71
2023/08/27 13:51:44;;;;;;;0.85;0.70;;;;;;;;;;5023704;28;20712;-69
2023/08/27 13:54:09;;;;;;;0.80;0.73;;;;;;;;;;5028220;28;20193;-70
2023/08/27 13:56:34;;;;;;;3.00;1.00;;;;;;;;;;5026367;28;20759;-71
2023/08/27 13:59:00;;;;;;;1.35;0.70;;;;;;;;;;5035997;28;20190;-71
2023/08/27 14:01:25;;;;;;;0.75;0.63;;;;;;;;;;5030365;28;20226;-71
2023/08/27 14:03:51;;;;;;;0.90;0.90;;;;;;;;;;5024467;28;20663;-72
2023/08/27 14:06:17;;;;;;;1.75;0.63;;;;;;;;;;5023825;28;20482;-72
2023/08/27 14:08:44;;;;;;;2.13;1.10;;;;;;;;;;5028444;28;20286;-73
2023/08/27 14:11:09;;;;;;;1.38;0.73;;;;;;;;;;5022550;28;20567;-71
2023/08/27 14:13:38;;;;;;;1.25;1.02;;;;;;;;;;5027981;28;20301;-71
2023/08/27 14:16:03;;;;;;;0.77;0.77;;;;;;;;;;5028339;28;20722;-71
2023/08/27 14:18:29;;;;;;;2.20;0.93;;;;;;;;;;5020457;28;20297;-72
2023/08/27 14:20:54;;;;;;;2.35;0.90;;;;;;;;;;5021482;28;20344;-71
2023/08/27 14:23:20;;;;;;;1.33;0.75;;;;;;;;;;5019243;28;20271;-71
2023/08/27 14:25:45;;;;;;;1.42;0.90;;;;;;;;;;5020212;28;20241;-71
2023/08/27 14:28:11;;;;;;;1.00;0.70;;;;;;;;;;5022438;28;20536;-71
2023/08/27 14:30:36;;;;;;;1.73;0.80;;;;;;;;;;5026458;28;20198;-70
2023/08/27 14:33:02;;;;;;;1.27;0.80;;;;;;;;;;5024256;28;20204;-73
2023/08/27 14:35:28;;;;;;;1.00;0.88;;;;;;;;;;5023908;28;20202;-70